Time;durP1;ratioP1;P1;durP2;ratioP2;P2;SDS_P1;SDS_P2;PMS_P1;PMS_P2;Temp;Humidity;BMP_temperature;BMP_pressure;BME280_temperature;BME280_humidity;BME280_pressure;Samples;Min_cycle;Max_cycle;Signal;HPM_P1;HPM_P2
2021/10/30 00:01:11;;;;;;;39.55;19.77;;;;;;;;;;4916395;29;20040;-37
2021/10/30 00:03:37;;;;;;;41.95;18.58;;;;;;;;;;4917378;29;20084;-37
2021/10/30 00:06:02;;;;;;;37.33;16.83;;;;;;;;;;4917209;29;20055;-37
2021/10/30 00:08:29;;;;;;;37.35;18.55;;;;;;;;;;4917621;29;20070;-37
2021/10/30 00:10:58;;;;;;;35.40;14.73;;;;;;;;;;4917437;29;20028;-37
2021/10/30 00:13:24;;;;;;;30.92;13.73;;;;;;;;;;4916146;29;20024;-37
2021/10/30 00:15:49;;;;;;;41.92;18.00;;;;;;;;;;4917147;29;20020;-37
2021/10/30 00:18:15;;;;;;;37.40;17.33;;;;;;;;;;4917157;29;20024;-37
2021/10/30 00:20:40;;;;;;;40.42;19.35;;;;;;;;;;4917130;29;20028;-37
2021/10/30 00:23:06;;;;;;;41.08;18.05;;;;;;;;;;4917315;29;20068;-37
2021/10/30 00:25:31;;;;;;;40.97;18.55;;;;;;;;;;4917047;29;20036;-37
2021/10/30 00:27:57;;;;;;;43.00;20.65;;;;;;;;;;4917166;29;20080;-37
2021/10/30 00:30:22;;;;;;;30.02;15.98;;;;;;;;;;4917300;29;20471;-37
2021/10/30 00:32:48;;;;;;;38.17;19.23;;;;;;;;;;4916936;29;20487;-38
2021/10/30 00:35:13;;;;;;;33.95;16.92;;;;;;;;;;4916869;29;20024;-37
2021/10/30 00:37:39;;;;;;;32.05;16.33;;;;;;;;;;4916892;29;20429;-37
2021/10/30 00:40:05;;;;;;;35.50;18.60;;;;;;;;;;4915659;29;20028;-37
2021/10/30 00:42:31;;;;;;;36.22;18.05;;;;;;;;;;4916886;29;20071;-37
2021/10/30 00:44:56;;;;;;;43.00;20.23;;;;;;;;;;4916507;29;20091;-36
2021/10/30 00:47:22;;;;;;;36.17;18.15;;;;;;;;;;4916934;29;20032;-37
2021/10/30 00:49:47;;;;;;;30.50;16.88;;;;;;;;;;4916497;29;20491;-37
2021/10/30 00:52:14;;;;;;;33.58;17.40;;;;;;;;;;4916671;29;20118;-36
2021/10/30 00:54:40;;;;;;;36.78;17.45;;;;;;;;;;4916758;29;20030;-37
2021/10/30 00:57:06;;;;;;;34.90;17.60;;;;;;;;;;4916568;29;20042;-37
2021/10/30 00:59:32;;;;;;;37.42;19.50;;;;;;;;;;4916492;29;20047;-37
2021/10/30 01:01:58;;;;;;;38.92;18.60;;;;;;;;;;4916436;29;20178;-37
2021/10/30 01:04:24;;;;;;;36.65;17.05;;;;;;;;;;4916397;29;20054;-37
2021/10/30 01:06:51;;;;;;;41.15;20.02;;;;;;;;;;4916234;29;20135;-37
2021/10/30 01:09:17;;;;;;;43.72;19.15;;;;;;;;;;4916340;29;20036;-37
2021/10/30 01:11:42;;;;;;;41.55;18.35;;;;;;;;;;4916447;29;20063;-36
2021/10/30 01:14:09;;;;;;;34.00;17.05;;;;;;;;;;4916222;29;20156;-37
2021/10/30 01:16:34;;;;;;;46.42;19.27;;;;;;;;;;4916117;29;20531;-37
2021/10/30 01:19:00;;;;;;;45.75;20.95;;;;;;;;;;4916306;29;20028;-37
2021/10/30 01:21:27;;;;;;;34.67;18.10;;;;;;;;;;4916223;29;20063;-37
2021/10/30 01:23:53;;;;;;;41.63;17.58;;;;;;;;;;4916328;29;20024;-37
2021/10/30 01:26:22;;;;;;;33.00;16.67;;;;;;;;;;4915973;29;20511;-37
2021/10/30 01:28:48;;;;;;;36.92;16.33;;;;;;;;;;4916218;29;20024;-37
2021/10/30 01:31:13;;;;;;;31.85;17.63;;;;;;;;;;4915988;29;20471;-37
2021/10/30 01:33:42;;;;;;;39.03;18.05;;;;;;;;;;4915851;29;20027;-37
2021/10/30 01:36:08;;;;;;;35.88;16.38;;;;;;;;;;4915933;29;20032;-37
2021/10/30 01:38:33;;;;;;;33.65;15.88;;;;;;;;;;4915732;29;20043;-37
2021/10/30 01:40:59;;;;;;;36.90;18.02;;;;;;;;;;4916051;29;20028;-37
2021/10/30 01:43:24;;;;;;;34.45;18.75;;;;;;;;;;4915975;29;20463;-37
2021/10/30 01:45:50;;;;;;;36.80;16.98;;;;;;;;;;4915516;29;20429;-37
2021/10/30 01:48:16;;;;;;;40.92;17.13;;;;;;;;;;4915713;29;20024;-36
2021/10/30 01:50:42;;;;;;;45.70;17.25;;;;;;;;;;4915581;29;20039;-37
2021/10/30 01:53:08;;;;;;;31.35;15.35;;;;;;;;;;4915592;29;20076;-36
2021/10/30 01:55:35;;;;;;;34.95;17.73;;;;;;;;;;4914788;29;20484;-37
2021/10/30 01:58:00;;;;;;;33.65;17.25;;;;;;;;;;4915739;29;20127;-37
2021/10/30 02:00:26;;;;;;;37.85;17.90;;;;;;;;;;4915489;29;20547;-36
2021/10/30 02:02:53;;;;;;;36.22;16.80;;;;;;;;;;4915378;29;20389;-37
2021/10/30 02:05:18;;;;;;;31.92;15.15;;;;;;;;;;4915221;29;20073;-37
2021/10/30 02:07:44;;;;;;;38.78;17.98;;;;;;;;;;4915239;29;20036;-36
2021/10/30 02:10:10;;;;;;;35.33;17.38;;;;;;;;;;4915369;29;20449;-37
2021/10/30 02:12:36;;;;;;;32.38;17.92;;;;;;;;;;4915575;29;20032;-37
2021/10/30 02:15:02;;;;;;;31.33;16.10;;;;;;;;;;4915519;29;20368;-37
2021/10/30 02:17:27;;;;;;;37.53;16.23;;;;;;;;;;4915291;29;20072;-37
2021/10/30 02:19:53;;;;;;;36.72;16.70;;;;;;;;;;4915364;29;20069;-37
2021/10/30 02:22:18;;;;;;;36.17;16.45;;;;;;;;;;4915143;29;20031;-37
2021/10/30 02:24:44;;;;;;;41.22;18.52;;;;;;;;;;4915320;29;20052;-37
2021/10/30 02:27:10;;;;;;;41.60;19.30;;;;;;;;;;4915324;29;20387;-37
2021/10/30 02:29:35;;;;;;;41.17;19.27;;;;;;;;;;4915033;29;20413;-36
2021/10/30 02:32:02;;;;;;;46.05;16.27;;;;;;;;;;4915308;29;20099;-37
2021/10/30 02:34:28;;;;;;;35.05;15.27;;;;;;;;;;4915359;29;20036;-36
2021/10/30 02:36:53;;;;;;;39.10;19.25;;;;;;;;;;4915193;29;20020;-37
2021/10/30 02:39:20;;;;;;;35.22;15.93;;;;;;;;;;4915284;29;20036;-36
2021/10/30 02:41:46;;;;;;;40.88;18.80;;;;;;;;;;4914897;29;20043;-36
2021/10/30 02:44:11;;;;;;;35.78;16.90;;;;;;;;;;4914951;29;20028;-37
2021/10/30 02:46:36;;;;;;;31.70;15.48;;;;;;;;;;4915055;29;20036;-37
2021/10/30 02:49:02;;;;;;;38.08;17.95;;;;;;;;;;4913681;29;20376;-37
2021/10/30 02:51:28;;;;;;;33.72;16.27;;;;;;;;;;4914791;29;20024;-36
2021/10/30 02:53:54;;;;;;;38.50;17.70;;;;;;;;;;4915077;29;20036;-37
2021/10/30 02:56:19;;;;;;;37.88;17.65;;;;;;;;;;4913764;29;20127;-37
2021/10/30 02:58:44;;;;;;;33.80;15.82;;;;;;;;;;4914965;29;20592;-37
2021/10/30 03:01:10;;;;;;;39.90;17.98;;;;;;;;;;4914854;29;20020;-37
2021/10/30 03:03:35;;;;;;;34.88;16.02;;;;;;;;;;4914724;29;20119;-37
2021/10/30 03:06:01;;;;;;;31.30;15.65;;;;;;;;;;4914973;29;20044;-37
2021/10/30 03:08:26;;;;;;;33.78;15.90;;;;;;;;;;4918806;29;20110;-37
2021/10/30 03:10:52;;;;;;;30.58;17.45;;;;;;;;;;4918392;29;20435;-37
2021/10/30 03:13:17;;;;;;;34.60;16.50;;;;;;;;;;4918671;29;20024;-37
2021/10/30 03:15:43;;;;;;;38.58;15.70;;;;;;;;;;4918384;29;20028;-37
2021/10/30 03:18:08;;;;;;;36.42;16.75;;;;;;;;;;4918520;29;20032;-37
2021/10/30 03:20:34;;;;;;;33.00;17.55;;;;;;;;;;4918271;29;20479;-36
2021/10/30 03:22:59;;;;;;;35.85;16.63;;;;;;;;;;4918296;29;20132;-36
2021/10/30 03:25:25;;;;;;;38.80;17.45;;;;;;;;;;4916929;29;20432;-36
2021/10/30 03:27:51;;;;;;;27.73;13.93;;;;;;;;;;4917997;29;20032;-37
2021/10/30 03:30:17;;;;;;;30.83;15.05;;;;;;;;;;4918039;29;20101;-37
2021/10/30 03:32:42;;;;;;;38.65;18.45;;;;;;;;;;4918060;29;20060;-37
2021/10/30 03:35:08;;;;;;;29.38;14.10;;;;;;;;;;4917990;29;20047;-36
2021/10/30 03:37:34;;;;;;;32.47;16.33;;;;;;;;;;4917925;29;20032;-37
2021/10/30 03:40:03;;;;;;;40.58;16.52;;;;;;;;;;4917912;29;20055;-37
2021/10/30 03:42:29;;;;;;;30.20;15.57;;;;;;;;;;4916823;29;20064;-36
2021/10/30 03:44:54;;;;;;;37.42;16.83;;;;;;;;;;4917777;29;20131;-38
2021/10/30 03:47:19;;;;;;;36.67;15.75;;;;;;;;;;4917684;29;20032;-37
2021/10/30 03:49:45;;;;;;;33.05;15.43;;;;;;;;;;4918049;29;20028;-36
2021/10/30 03:52:10;;;;;;;32.30;16.02;;;;;;;;;;4917990;29;20032;-36
2021/10/30 03:54:36;;;;;;;33.30;16.92;;;;;;;;;;4917804;29;20801;-37
2021/10/30 03:57:02;;;;;;;37.15;15.85;;;;;;;;;;4917681;29;20040;-37
2021/10/30 03:59:27;;;;;;;28.20;15.10;;;;;;;;;;4917890;29;20432;-38
2021/10/30 04:01:53;;;;;;;32.50;16.02;;;;;;;;;;4917453;29;20024;-37
2021/10/30 04:04:18;;;;;;;35.20;16.95;;;;;;;;;;4917805;29;20405;-37
2021/10/30 04:06:44;;;;;;;31.10;14.52;;;;;;;;;;4917253;29;20044;-36
2021/10/30 04:09:09;;;;;;;29.98;16.13;;;;;;;;;;4917324;29;20032;-37
2021/10/30 04:11:35;;;;;;;28.75;14.15;;;;;;;;;;4917401;29;20088;-37
2021/10/30 04:14:00;;;;;;;27.02;14.77;;;;;;;;;;4916086;29;20089;-37
2021/10/30 04:16:26;;;;;;;31.25;15.13;;;;;;;;;;4917376;29;20032;-36
2021/10/30 04:18:51;;;;;;;28.52;13.05;;;;;;;;;;4916808;29;20109;-37
2021/10/30 04:21:17;;;;;;;29.33;15.77;;;;;;;;;;4917286;29;20915;-37
2021/10/30 04:23:43;;;;;;;32.35;14.77;;;;;;;;;;4917165;29;20404;-36
2021/10/30 04:26:08;;;;;;;29.40;14.25;;;;;;;;;;4917152;29;20050;-36
2021/10/30 04:28:34;;;;;;;32.17;15.88;;;;;;;;;;4917094;29;20020;-37
2021/10/30 04:31:04;;;;;;;29.83;14.40;;;;;;;;;;4917012;29;20063;-36
2021/10/30 04:33:30;;;;;;;38.72;14.90;;;;;;;;;;4917296;29;20558;-36
2021/10/30 04:35:55;;;;;;;28.50;12.88;;;;;;;;;;4917237;29;20114;-37
2021/10/30 04:38:22;;;;;;;30.83;14.70;;;;;;;;;;4916842;29;20054;-37
2021/10/30 04:40:48;;;;;;;34.28;15.27;;;;;;;;;;4917158;29;20055;-37
2021/10/30 04:43:13;;;;;;;30.17;15.65;;;;;;;;;;4916924;29;20116;-37
2021/10/30 04:45:40;;;;;;;27.60;12.57;;;;;;;;;;4916574;29;20040;-37
2021/10/30 04:48:05;;;;;;;30.65;15.02;;;;;;;;;;4917129;29;20039;-36
2021/10/30 04:50:31;;;;;;;22.13;11.27;;;;;;;;;;4916648;29;20028;-37
2021/10/30 04:52:56;;;;;;;30.00;15.50;;;;;;;;;;4916628;29;20115;-37
2021/10/30 04:55:22;;;;;;;29.38;13.88;;;;;;;;;;4916728;29;20030;-36
2021/10/30 04:57:48;;;;;;;34.38;15.73;;;;;;;;;;4916494;29;20032;-37
2021/10/30 05:00:13;;;;;;;31.33;13.45;;;;;;;;;;4916847;29;20027;-37
2021/10/30 05:02:39;;;;;;;34.53;16.88;;;;;;;;;;4916452;29;20047;-37
2021/10/30 05:05:04;;;;;;;31.13;15.07;;;;;;;;;;4916667;29;20039;-36
2021/10/30 05:07:30;;;;;;;28.35;13.95;;;;;;;;;;4916251;29;20044;-37
2021/10/30 05:09:55;;;;;;;27.75;13.15;;;;;;;;;;4916327;29;20630;-37
2021/10/30 05:12:21;;;;;;;30.88;14.45;;;;;;;;;;4931000;29;20032;-37
2021/10/30 05:14:46;;;;;;;32.13;14.43;;;;;;;;;;4916117;29;20027;-37
2021/10/30 05:17:12;;;;;;;27.73;15.32;;;;;;;;;;4916482;29;20059;-37
2021/10/30 05:19:37;;;;;;;32.42;13.82;;;;;;;;;;4916065;29;20080;-37
2021/10/30 05:22:03;;;;;;;21.83;12.45;;;;;;;;;;4916139;29;20063;-37
2021/10/30 05:24:29;;;;;;;30.50;15.07;;;;;;;;;;4916332;29;20506;-37
2021/10/30 05:26:54;;;;;;;27.40;12.63;;;;;;;;;;4915909;29;20479;-37
2021/10/30 05:29:20;;;;;;;29.23;14.25;;;;;;;;;;4915483;29;20032;-37
2021/10/30 05:31:45;;;;;;;28.90;13.35;;;;;;;;;;4915598;29;20079;-37
2021/10/30 05:34:11;;;;;;;30.23;15.55;;;;;;;;;;4915831;29;20384;-37
2021/10/30 05:37:05;;;;;;;29.88;14.00;;;;;;;;;;4885181;29;20036;-36
2021/10/30 05:39:41;;;;;;;32.08;14.60;;;;;;;;;;4915896;29;20114;-37
2021/10/30 05:42:08;;;;;;;29.17;13.13;;;;;;;;;;4915823;29;20032;-37
2021/10/30 05:44:34;;;;;;;29.65;13.55;;;;;;;;;;4915651;29;20079;-37
2021/10/30 05:46:59;;;;;;;31.00;13.82;;;;;;;;;;4915626;29;20126;-37
2021/10/30 05:49:26;;;;;;;32.55;13.40;;;;;;;;;;4915634;29;20024;-36
2021/10/30 05:51:52;;;;;;;32.15;14.68;;;;;;;;;;4915835;29;20038;-36
2021/10/30 05:54:17;;;;;;;21.27;12.27;;;;;;;;;;4915904;29;20036;-36
2021/10/30 05:56:43;;;;;;;27.50;14.63;;;;;;;;;;4914086;29;20032;-37
2021/10/30 05:59:08;;;;;;;30.58;14.15;;;;;;;;;;4915607;29;20136;-37
2021/10/30 06:01:34;;;;;;;27.63;13.27;;;;;;;;;;4915619;29;20088;-37
2021/10/30 06:04:00;;;;;;;25.15;12.35;;;;;;;;;;4915671;29;20097;-36
2021/10/30 06:06:25;;;;;;;30.17;12.70;;;;;;;;;;4915334;29;20080;-36
2021/10/30 06:08:51;;;;;;;30.55;13.60;;;;;;;;;;4915329;29;20032;-37
2021/10/30 06:11:16;;;;;;;27.35;12.70;;;;;;;;;;4915382;29;20399;-37
2021/10/30 06:13:42;;;;;;;24.73;12.02;;;;;;;;;;4915286;29;20383;-37
2021/10/30 06:16:07;;;;;;;26.83;12.38;;;;;;;;;;4929842;29;20559;-36
2021/10/30 06:18:33;;;;;;;29.60;13.70;;;;;;;;;;4915272;29;20026;-36
2021/10/30 06:20:58;;;;;;;25.17;13.27;;;;;;;;;;4930024;29;20079;-36
2021/10/30 06:23:24;;;;;;;28.30;12.90;;;;;;;;;;4915239;29;20024;-37
2021/10/30 06:25:49;;;;;;;29.83;13.60;;;;;;;;;;4915081;29;20043;-37
2021/10/30 06:28:15;;;;;;;29.05;13.73;;;;;;;;;;4915116;29;20032;-36
2021/10/30 06:30:40;;;;;;;28.88;11.93;;;;;;;;;;4915045;29;20467;-36
2021/10/30 06:33:06;;;;;;;19.65;10.50;;;;;;;;;;4915365;29;20036;-36
2021/10/30 06:35:31;;;;;;;28.38;12.40;;;;;;;;;;4915113;29;20051;-37
2021/10/30 06:37:57;;;;;;;35.03;14.98;;;;;;;;;;4914955;29;20024;-37
2021/10/30 06:40:23;;;;;;;23.65;11.60;;;;;;;;;;4915051;29;20036;-36
2021/10/30 06:42:49;;;;;;;27.02;14.15;;;;;;;;;;4918738;29;20027;-37
2021/10/30 06:45:14;;;;;;;21.92;11.85;;;;;;;;;;4919096;29;20387;-37
2021/10/30 06:47:40;;;;;;;24.20;11.65;;;;;;;;;;4919106;29;20072;-37
2021/10/30 06:50:06;;;;;;;24.08;11.65;;;;;;;;;;4933577;29;20482;-37
2021/10/30 06:52:38;;;;;;;28.60;12.55;;;;;;;;;;4917620;29;20106;-37
2021/10/30 06:55:08;;;;;;;27.70;11.55;;;;;;;;;;4918864;29;20066;-38
2021/10/30 06:57:33;;;;;;;28.83;12.80;;;;;;;;;;4918738;29;20459;-37
2021/10/30 07:00:00;;;;;;;28.85;12.48;;;;;;;;;;4918681;29;20048;-37
2021/10/30 07:02:25;;;;;;;24.70;11.55;;;;;;;;;;4918987;29;20080;-37
2021/10/30 07:04:51;;;;;;;30.20;13.50;;;;;;;;;;4918525;29;20040;-36
2021/10/30 07:07:16;;;;;;;27.77;12.60;;;;;;;;;;4918327;29;20060;-36
2021/10/30 07:09:42;;;;;;;32.80;13.88;;;;;;;;;;4918474;29;20126;-37
2021/10/30 07:12:07;;;;;;;26.95;11.75;;;;;;;;;;4918769;29;20032;-36
2021/10/30 07:14:33;;;;;;;23.38;12.07;;;;;;;;;;4918491;29;20024;-37
2021/10/30 07:16:58;;;;;;;24.00;11.50;;;;;;;;;;4918546;29;20036;-37
2021/10/30 07:19:24;;;;;;;18.20;10.35;;;;;;;;;;4917139;29;20071;-36
2021/10/30 07:21:49;;;;;;;26.33;12.93;;;;;;;;;;4918392;29;20043;-37
2021/10/30 07:24:15;;;;;;;23.33;11.63;;;;;;;;;;4932995;29;20040;-37
2021/10/30 07:26:40;;;;;;;22.48;12.13;;;;;;;;;;4918032;29;20109;-36
2021/10/30 07:29:06;;;;;;;22.98;11.65;;;;;;;;;;4918246;29;20043;-36
2021/10/30 07:31:32;;;;;;;22.40;11.75;;;;;;;;;;4918147;29;20032;-36
2021/10/30 07:33:57;;;;;;;18.73;10.77;;;;;;;;;;4918136;29;20032;-36
2021/10/30 07:36:23;;;;;;;19.20;9.18;;;;;;;;;;4918053;29;20360;-37
2021/10/30 07:38:49;;;;;;;25.45;11.90;;;;;;;;;;4918041;29;20028;-37
2021/10/30 07:41:14;;;;;;;23.83;10.75;;;;;;;;;;4918008;29;20487;-36
2021/10/30 07:43:40;;;;;;;25.40;11.13;;;;;;;;;;4918102;29;20028;-37
2021/10/30 07:46:06;;;;;;;17.70;10.80;;;;;;;;;;4918235;29;20594;-36
2021/10/30 07:48:32;;;;;;;20.15;10.13;;;;;;;;;;4917828;29;20020;-37
2021/10/30 07:50:57;;;;;;;22.83;11.88;;;;;;;;;;4917690;29;20039;-37
2021/10/30 07:53:23;;;;;;;23.38;11.73;;;;;;;;;;4916697;29;20031;-37
2021/10/30 07:55:49;;;;;;;24.52;12.00;;;;;;;;;;4917654;29;20039;-37
2021/10/30 07:58:15;;;;;;;24.17;11.70;;;;;;;;;;4917722;29;20032;-37
2021/10/30 08:00:40;;;;;;;24.17;10.65;;;;;;;;;;4917763;29;20460;-37
2021/10/30 08:03:05;;;;;;;23.80;11.93;;;;;;;;;;4917603;29;20097;-37
2021/10/30 08:05:32;;;;;;;18.05;9.52;;;;;;;;;;4917305;29;20115;-37
2021/10/30 08:07:57;;;;;;;20.05;10.05;;;;;;;;;;4917420;29;20088;-37
2021/10/30 08:10:26;;;;;;;18.85;9.68;;;;;;;;;;4916332;29;20040;-37
2021/10/30 08:12:55;;;;;;;23.08;10.57;;;;;;;;;;4917312;29;20035;-37
2021/10/30 08:15:21;;;;;;;19.05;10.57;;;;;;;;;;4917705;29;20016;-36
2021/10/30 08:17:46;;;;;;;18.13;10.48;;;;;;;;;;4917131;29;20032;-37
2021/10/30 08:20:12;;;;;;;17.50;9.40;;;;;;;;;;4917326;29;20468;-37
2021/10/30 08:22:39;;;;;;;22.25;11.07;;;;;;;;;;4917232;29;20035;-36
2021/10/30 08:25:05;;;;;;;25.30;12.25;;;;;;;;;;4917068;29;20096;-36
2021/10/30 08:27:31;;;;;;;18.67;9.73;;;;;;;;;;4917164;29;20039;-37
2021/10/30 08:29:56;;;;;;;19.05;10.20;;;;;;;;;;4917132;29;20063;-37
2021/10/30 08:32:22;;;;;;;16.33;9.10;;;;;;;;;;4917218;29;20464;-37
2021/10/30 08:34:47;;;;;;;23.88;8.88;;;;;;;;;;4917417;29;20024;-37
2021/10/30 08:37:13;;;;;;;14.35;8.50;;;;;;;;;;4916990;29;20124;-36
2021/10/30 08:39:39;;;;;;;18.60;8.95;;;;;;;;;;4916900;29;20020;-37
2021/10/30 08:42:05;;;;;;;22.40;9.88;;;;;;;;;;4916965;29;20060;-37
2021/10/30 08:44:31;;;;;;;16.73;7.72;;;;;;;;;;4917132;29;20040;-37
2021/10/30 08:46:59;;;;;;;20.70;9.40;;;;;;;;;;4916697;29;20039;-36
2021/10/30 08:49:24;;;;;;;19.75;8.40;;;;;;;;;;4917045;29;20024;-37
2021/10/30 08:51:50;;;;;;;13.30;6.97;;;;;;;;;;4916680;29;20538;-37
2021/10/30 08:54:16;;;;;;;16.48;9.02;;;;;;;;;;4916686;29;20035;-37
2021/10/30 08:56:42;;;;;;;16.17;8.50;;;;;;;;;;4916782;29;20036;-37
2021/10/30 08:59:08;;;;;;;22.50;8.85;;;;;;;;;;4916934;29;20367;-36
2021/10/30 09:01:44;;;;;;;16.75;7.70;;;;;;;;;;4916514;29;20039;-37
2021/10/30 09:04:11;;;;;;;15.20;7.28;;;;;;;;;;4916345;29;20035;-37
2021/10/30 09:06:43;;;;;;;16.60;8.13;;;;;;;;;;4916103;29;20487;-37
2021/10/30 09:09:16;;;;;;;15.57;8.83;;;;;;;;;;4916384;29;20048;-37
2021/10/30 09:11:42;;;;;;;;;;;;;;;;;;4916785;29;20119;-37
2021/10/30 09:14:16;;;;;;;14.77;6.22;;;;;;;;;;4916323;29;19954;-37
2021/10/30 09:16:41;;;;;;;19.38;8.15;;;;;;;;;;4916200;29;20036;-37
2021/10/30 09:19:10;;;;;;;13.63;7.60;;;;;;;;;;4916251;29;20024;-37
2021/10/30 09:21:35;;;;;;;15.25;8.07;;;;;;;;;;4916223;29;20032;-37
2021/10/30 09:24:01;;;;;;;20.25;7.97;;;;;;;;;;4916105;29;20084;-37
2021/10/30 09:26:27;;;;;;;15.93;8.02;;;;;;;;;;4915993;29;20482;-37
2021/10/30 09:28:57;;;;;;;15.30;6.88;;;;;;;;;;4916058;29;20072;-37
2021/10/30 09:31:26;;;;;;;20.02;8.00;;;;;;;;;;4916001;29;20495;-37
2021/10/30 09:33:52;;;;;;;16.40;7.05;;;;;;;;;;4915917;29;20035;-36
2021/10/30 09:36:19;;;;;;;11.40;6.75;;;;;;;;;;4915783;29;20454;-37
2021/10/30 09:38:45;;;;;;;17.08;7.68;;;;;;;;;;4915856;29;20112;-37
2021/10/30 09:41:30;;;;;;;13.93;6.82;;;;;;;;;;4916156;29;20544;-37
2021/10/30 09:43:55;;;;;;;14.68;7.88;;;;;;;;;;4914539;29;20028;-36
2021/10/30 09:46:22;;;;;;;14.57;6.85;;;;;;;;;;4915623;29;20375;-37
2021/10/30 09:48:47;;;;;;;15.20;6.57;;;;;;;;;;4915911;29;20039;-37
2021/10/30 09:51:27;;;;;;;12.32;6.25;;;;;;;;;;4915609;29;20024;-37
2021/10/30 09:53:53;;;;;;;13.32;6.65;;;;;;;;;;4915610;29;20092;-37
2021/10/30 09:56:18;;;;;;;10.95;6.45;;;;;;;;;;4915606;29;20436;-37
2021/10/30 09:58:47;;;;;;;14.35;7.13;;;;;;;;;;4915701;29;20036;-36
2021/10/30 10:01:15;;;;;;;11.02;6.65;;;;;;;;;;4915840;29;20032;-36
2021/10/30 10:03:50;;;;;;;14.38;7.20;;;;;;;;;;4898554;29;20036;-36
2021/10/30 10:06:23;;;;;;;10.82;5.95;;;;;;;;;;4915302;29;20055;-37
2021/10/30 10:08:49;;;;;;;;;;;;;;;;;;4915733;29;20357;-37
2021/10/30 10:11:16;;;;;;;13.57;5.15;;;;;;;;;;4915648;29;19914;-37
2021/10/30 10:13:43;;;;;;;12.45;6.38;;;;;;;;;;4915286;29;20092;-37
2021/10/30 10:16:18;;;;;;;14.60;6.20;;;;;;;;;;4914823;29;20016;-36
2021/10/30 10:18:43;;;;;;;12.40;5.85;;;;;;;;;;4915206;29;20472;-36
2021/10/30 10:21:12;;;;;;;10.25;5.80;;;;;;;;;;4915489;29;20111;-36
2021/10/30 10:23:39;;;;;;;11.23;5.32;;;;;;;;;;4914123;29;20035;-37
2021/10/30 10:26:05;;;;;;;8.50;5.03;;;;;;;;;;4915046;29;20507;-36
2021/10/30 10:28:36;;;;;;;14.20;6.70;;;;;;;;;;4915180;29;20032;-37
2021/10/30 10:31:04;;;;;;;13.75;6.45;;;;;;;;;;4915370;29;20035;-36
2021/10/30 10:33:30;;;;;;;8.75;5.22;;;;;;;;;;4915058;29;20024;-37
2021/10/30 10:36:14;;;;;;;8.13;4.95;;;;;;;;;;4915112;29;20483;-36
2021/10/30 10:38:58;;;;;;;11.07;5.68;;;;;;;;;;4915060;29;20039;-37
2021/10/30 10:41:39;;;;;;;8.43;4.80;;;;;;;;;;4915023;29;20040;-37
2021/10/30 10:44:05;;;;;;;7.70;5.07;;;;;;;;;;4915084;29;20032;-37
2021/10/30 10:46:31;;;;;;;9.93;6.35;;;;;;;;;;4914801;29;20036;-37
2021/10/30 10:49:16;;;;;;;9.82;5.25;;;;;;;;;;4913694;29;20558;-36
2021/10/30 10:51:46;;;;;;;7.85;4.60;;;;;;;;;;4914961;29;20425;-36
2021/10/30 10:54:11;;;;;;;7.45;5.22;;;;;;;;;;4914963;29;20052;-37
2021/10/30 10:56:54;;;;;;;11.27;5.70;;;;;;;;;;4914838;29;20051;-37
2021/10/30 10:59:38;;;;;;;8.50;5.70;;;;;;;;;;4914974;29;20036;-37
2021/10/30 11:02:26;;;;;;;7.97;4.85;;;;;;;;;;4914950;29;20040;-37
2021/10/30 11:05:14;;;;;;;10.45;5.03;;;;;;;;;;4914665;29;20480;-36
2021/10/30 11:07:39;;;;;;;6.00;4.13;;;;;;;;;;4905214;29;20100;-37
2021/10/30 11:10:09;;;;;;;8.75;4.80;;;;;;;;;;4914802;29;20032;-36
2021/10/30 11:12:35;;;;;;;10.50;4.85;;;;;;;;;;4914868;29;20448;-37
2021/10/30 11:15:04;;;;;;;7.78;4.53;;;;;;;;;;4914570;29;20092;-37
2021/10/30 11:18:02;;;;;;;7.97;4.68;;;;;;;;;;4913490;29;20452;-36
2021/10/30 11:20:34;;;;;;;9.05;4.90;;;;;;;;;;4914783;29;20040;-37
2021/10/30 11:23:00;;;;;;;7.70;4.50;;;;;;;;;;4914559;29;20368;-37
2021/10/30 11:25:32;;;;;;;23.73;6.13;;;;;;;;;;4914662;29;20040;-37
2021/10/30 11:27:59;;;;;;;9.43;4.63;;;;;;;;;;4916373;29;20628;-37
2021/10/30 11:30:41;;;;;;;8.55;4.25;;;;;;;;;;4918085;29;20267;-37
2021/10/30 11:33:25;;;;;;;10.23;4.93;;;;;;;;;;4918214;29;20099;-37
2021/10/30 11:35:56;;;;;;;12.52;6.13;;;;;;;;;;4918136;29;20092;-37
2021/10/30 11:38:22;;;;;;;11.52;4.50;;;;;;;;;;4917919;29;20132;-37
2021/10/30 11:40:55;;;;;;;9.63;5.32;;;;;;;;;;4918032;29;20099;-36
2021/10/30 11:43:21;;;;;;;9.65;4.88;;;;;;;;;;4917947;29;20083;-38
2021/10/30 11:45:46;;;;;;;8.82;4.50;;;;;;;;;;4917779;29;20040;-37
2021/10/30 11:48:12;;;;;;;9.93;5.20;;;;;;;;;;4917773;29;20036;-36
2021/10/30 11:50:50;;;;;;;11.38;5.55;;;;;;;;;;4917782;29;20020;-37
2021/10/30 11:53:19;;;;;;;9.27;5.72;;;;;;;;;;4918109;29;20024;-37
2021/10/30 11:55:59;;;;;;;12.88;5.32;;;;;;;;;;4917731;29;20024;-37
2021/10/30 11:58:40;;;;;;;12.60;6.20;;;;;;;;;;4917960;29;20040;-37
2021/10/30 12:01:20;;;;;;;13.63;6.68;;;;;;;;;;4917693;29;20032;-37
2021/10/30 12:03:46;;;;;;;14.60;8.75;;;;;;;;;;4917500;29;20395;-37
2021/10/30 12:06:12;;;;;;;12.07;7.38;;;;;;;;;;4917407;29;20127;-37
2021/10/30 12:08:38;;;;;;;13.32;7.30;;;;;;;;;;4916348;29;20547;-36
2021/10/30 12:11:04;;;;;;;16.52;10.25;;;;;;;;;;4917668;29;20381;-37
2021/10/30 12:13:32;;;;;;;19.42;6.07;;;;;;;;;;4917456;29;20039;-37
2021/10/30 12:15:59;;;;;;;29.83;12.88;;;;;;;;;;4917262;29;20103;-36
2021/10/30 12:18:27;;;;;;;33.10;16.08;;;;;;;;;;4917427;29;20032;-37
2021/10/30 12:20:53;;;;;;;12.80;6.93;;;;;;;;;;4917206;29;20344;-37
2021/10/30 12:23:19;;;;;;;9.95;5.00;;;;;;;;;;4917272;29;20111;-37
2021/10/30 12:25:45;;;;;;;10.90;5.78;;;;;;;;;;4917422;29;20504;-37
2021/10/30 12:28:10;;;;;;;11.77;6.75;;;;;;;;;;4917106;29;20047;-36
2021/10/30 12:30:37;;;;;;;12.88;5.97;;;;;;;;;;4917198;29;20032;-37
2021/10/30 12:33:10;;;;;;;16.90;6.20;;;;;;;;;;4917071;29;20032;-37
2021/10/30 12:35:38;;;;;;;12.20;5.85;;;;;;;;;;4916961;29;20255;-37
2021/10/30 12:38:21;;;;;;;16.27;6.47;;;;;;;;;;4917034;29;20138;-37
2021/10/30 12:40:48;;;;;;;9.13;5.40;;;;;;;;;;4916513;29;20043;-37
2021/10/30 12:43:18;;;;;;;11.60;5.93;;;;;;;;;;4916998;29;20028;-37
2021/10/30 12:45:48;;;;;;;9.52;5.55;;;;;;;;;;4916743;29;20067;-36
2021/10/30 12:48:15;;;;;;;8.90;5.10;;;;;;;;;;4917071;29;20098;-36
2021/10/30 12:50:40;;;;;;;10.00;5.72;;;;;;;;;;4916785;29;20036;-37
2021/10/30 12:53:21;;;;;;;13.73;5.70;;;;;;;;;;4916812;29;20453;-36
2021/10/30 12:55:57;;;;;;;11.68;6.15;;;;;;;;;;4916813;29;20028;-37
2021/10/30 12:58:33;;;;;;;14.50;6.97;;;;;;;;;;4916813;29;20115;-37
2021/10/30 13:00:58;;;;;;;9.02;5.57;;;;;;;;;;4916516;29;20044;-37
2021/10/30 13:03:29;;;;;;;10.43;6.07;;;;;;;;;;4916563;29;20028;-37
2021/10/30 13:05:55;;;;;;;11.00;5.63;;;;;;;;;;4916232;29;20048;-37
2021/10/30 13:08:21;;;;;;;11.77;5.70;;;;;;;;;;4916492;29;20024;-37
2021/10/30 13:10:47;;;;;;;11.38;6.40;;;;;;;;;;4916504;29;20059;-37
2021/10/30 13:13:13;;;;;;;10.80;6.22;;;;;;;;;;4916429;29;20044;-37
2021/10/30 13:15:39;;;;;;;13.68;6.45;;;;;;;;;;4916346;29;20090;-37
2021/10/30 13:18:05;;;;;;;11.40;6.20;;;;;;;;;;4914825;29;20024;-36
2021/10/30 13:20:34;;;;;;;11.32;6.07;;;;;;;;;;4916280;29;20043;-36
2021/10/30 13:23:00;;;;;;;13.50;6.88;;;;;;;;;;4915912;29;20068;-37
2021/10/30 13:25:25;;;;;;;11.70;6.05;;;;;;;;;;4916074;29;20040;-36
2021/10/30 13:27:51;;;;;;;14.48;6.03;;;;;;;;;;4916274;29;20016;-36
2021/10/30 13:30:17;;;;;;;13.27;6.25;;;;;;;;;;4916066;29;20028;-37
2021/10/30 13:32:43;;;;;;;10.63;6.10;;;;;;;;;;4915967;29;20047;-37
2021/10/30 13:35:09;;;;;;;17.67;5.88;;;;;;;;;;4915917;29;20361;-37
2021/10/30 13:37:35;;;;;;;11.25;6.53;;;;;;;;;;4915910;29;20050;-37
2021/10/30 13:40:01;;;;;;;11.73;6.15;;;;;;;;;;4914553;29;20032;-37
2021/10/30 13:42:27;;;;;;;15.00;5.68;;;;;;;;;;4916089;29;20032;-37
2021/10/30 13:44:53;;;;;;;21.50;9.15;;;;;;;;;;4915653;29;20496;-37
2021/10/30 13:47:18;;;;;;;22.40;11.70;;;;;;;;;;4915741;29;20034;-37
2021/10/30 13:49:44;;;;;;;15.80;7.75;;;;;;;;;;4915627;29;20024;-37
2021/10/30 13:52:12;;;;;;;12.90;6.60;;;;;;;;;;4913594;29;20032;-37
2021/10/30 13:54:38;;;;;;;12.18;7.40;;;;;;;;;;4915596;29;20036;-38
2021/10/30 13:57:03;;;;;;;21.85;8.40;;;;;;;;;;4915776;29;20084;-37
2021/10/30 13:59:29;;;;;;;12.60;6.07;;;;;;;;;;4915570;29;20028;-37
2021/10/30 14:01:55;;;;;;;12.73;6.05;;;;;;;;;;4930211;29;20052;-36
2021/10/30 14:04:21;;;;;;;15.80;8.30;;;;;;;;;;4915570;29;20039;-36
2021/10/30 14:06:46;;;;;;;11.77;6.57;;;;;;;;;;4914999;29;20056;-37
2021/10/30 14:09:13;;;;;;;14.27;7.05;;;;;;;;;;4915478;29;20028;-37
2021/10/30 14:11:38;;;;;;;13.65;6.80;;;;;;;;;;4915440;29;20032;-37
2021/10/30 14:14:04;;;;;;;10.27;5.82;;;;;;;;;;4915232;29;20035;-37
2021/10/30 14:16:33;;;;;;;13.60;7.07;;;;;;;;;;4915345;29;20031;-37
2021/10/30 14:19:00;;;;;;;19.77;9.05;;;;;;;;;;4915086;29;20444;-37
2021/10/30 14:21:25;;;;;;;13.40;7.38;;;;;;;;;;4915300;29;20062;-37
2021/10/30 14:23:53;;;;;;;13.38;6.78;;;;;;;;;;4915274;29;20475;-37